createdAt,value
2019-01-23T00:01:43.452Z,20.48
2019-01-23T00:06:46.985Z,20.48
2019-01-23T00:11:50.452Z,20.49
2019-01-23T00:16:53.913Z,20.48
2019-01-23T00:21:57.377Z,20.48
2019-01-23T00:27:00.837Z,20.47
2019-01-23T00:32:04.370Z,20.46
2019-01-23T00:37:07.836Z,20.47
2019-01-23T00:42:11.297Z,20.46
2019-01-23T00:47:14.761Z,20.45
2019-01-23T00:52:18.231Z,20.46
2019-01-23T00:57:21.865Z,20.45
2019-01-23T01:02:25.494Z,20.44
2019-01-23T01:07:29.626Z,20.45
2019-01-23T01:12:33.093Z,20.43
2019-01-23T01:17:36.554Z,20.43
2019-01-23T01:22:40.089Z,20.42
2019-01-23T01:27:43.549Z,20.42
2019-01-23T01:32:47.013Z,20.41
2019-01-23T01:37:50.540Z,20.40
2019-01-23T01:42:53.996Z,20.40
2019-01-23T01:47:57.457Z,20.38
2019-01-23T01:53:00.924Z,20.38
2019-01-23T01:58:04.553Z,20.37
2019-01-23T02:03:08.055Z,20.36
2019-01-23T02:08:11.551Z,20.36
2019-01-23T02:13:15.009Z,20.33
2019-01-23T02:18:18.470Z,20.35
2019-01-23T02:23:21.929Z,20.33
2019-01-23T02:28:25.393Z,20.32
2019-01-23T02:33:28.850Z,20.31
2019-01-23T02:38:32.317Z,20.32
2019-01-23T02:43:35.774Z,20.33
2019-01-23T02:48:39.233Z,20.33
2019-01-23T02:53:42.693Z,20.32
2019-01-23T02:58:46.152Z,20.33
2019-01-23T03:03:49.619Z,20.32
2019-01-23T03:08:53.082Z,20.32
2019-01-23T03:13:56.563Z,20.33
2019-01-23T03:19:00.022Z,20.32
2019-01-23T03:24:03.557Z,20.33
2019-01-23T03:29:07.019Z,20.32
2019-01-23T03:34:10.481Z,20.32
2019-01-23T03:39:13.938Z,20.32
2019-01-23T03:44:17.402Z,20.32
2019-01-23T03:49:20.865Z,20.32
2019-01-23T03:54:24.328Z,20.30
2019-01-23T03:59:32.153Z,20.29
2019-01-23T04:04:33.012Z,20.30
2019-01-23T04:09:36.476Z,20.29
2019-01-23T04:14:39.939Z,20.29
2019-01-23T04:19:43.397Z,20.30
2019-01-23T04:24:46.871Z,20.29
2019-01-23T04:29:50.339Z,20.29
2019-01-23T04:34:53.795Z,20.29
2019-01-23T04:39:57.256Z,20.29
2019-01-23T04:45:00.728Z,20.30
2019-01-23T04:50:06.226Z,20.29
2019-01-23T04:55:09.760Z,20.29
2019-01-23T05:00:15.837Z,20.28
2019-01-23T05:05:19.274Z,20.27
2019-01-23T05:10:22.801Z,20.27
2019-01-23T05:15:26.271Z,20.26
2019-01-23T05:20:29.730Z,20.25
2019-01-23T05:25:33.195Z,20.24
2019-01-23T05:30:36.657Z,20.24
2019-01-23T05:35:40.124Z,20.25
2019-01-23T05:40:43.590Z,20.24
2019-01-23T05:45:47.049Z,20.24
2019-01-23T05:50:50.518Z,20.25
2019-01-23T05:55:53.980Z,20.24
2019-01-23T06:00:57.453Z,20.23
2019-01-23T06:06:00.912Z,20.23
2019-01-23T06:11:04.385Z,20.23
2019-01-23T06:16:07.852Z,20.21
2019-01-23T06:21:11.317Z,20.20
2019-01-23T06:26:14.773Z,20.20
2019-01-23T06:31:18.245Z,20.19
2019-01-23T06:36:21.719Z,20.19
2019-01-23T06:41:25.182Z,20.19
2019-01-23T06:46:28.648Z,20.17
2019-01-23T06:51:32.116Z,20.17
2019-01-23T06:56:35.583Z,20.17
2019-01-23T07:01:39.052Z,20.16
2019-01-23T07:06:42.511Z,20.15
2019-01-23T07:11:45.976Z,20.15
2019-01-23T07:16:49.445Z,20.15
2019-01-23T07:21:52.908Z,20.15
2019-01-23T07:26:56.372Z,20.17
2019-01-23T07:31:59.830Z,20.17
2019-01-23T07:37:03.402Z,20.16
2019-01-23T07:42:06.861Z,20.15
2019-01-23T07:47:10.321Z,20.13
2019-01-23T07:52:13.782Z,20.11
2019-01-23T07:57:17.248Z,20.08
2019-01-23T08:02:20.711Z,20.10
2019-01-23T08:07:24.183Z,20.11
2019-01-23T08:12:27.654Z,20.12
2019-01-23T08:17:32.866Z,20.15
2019-01-23T08:22:36.305Z,20.23
2019-01-23T08:27:39.766Z,20.28
2019-01-23T08:32:43.228Z,20.32
2019-01-23T08:37:46.685Z,20.36
2019-01-23T08:42:50.386Z,20.36
2019-01-23T08:47:53.845Z,20.38
2019-01-23T08:52:57.310Z,20.39
2019-01-23T08:58:00.775Z,20.40
2019-01-23T09:03:04.942Z,20.40
2019-01-23T09:08:08.846Z,20.40
2019-01-23T09:13:12.309Z,20.42
2019-01-23T09:18:15.773Z,20.40
2019-01-23T09:23:19.238Z,20.38
2019-01-23T09:28:22.703Z,20.38
2019-01-23T09:33:34.880Z,20.38
2019-01-23T09:38:44.494Z,20.37
2019-01-23T09:44:24.231Z,20.35
2019-01-23T09:50:01.391Z,20.33
2019-01-23T09:55:08.608Z,20.34
2019-01-23T10:00:23.756Z,20.33
2019-01-23T10:05:27.245Z,20.33
2019-01-23T10:10:30.742Z,20.34
2019-01-23T10:15:40.216Z,20.35
2019-01-23T10:20:43.707Z,20.34
2019-01-23T10:25:47.192Z,20.33
2019-01-23T10:30:50.665Z,20.31
2019-01-23T10:35:54.148Z,20.31
2019-01-23T10:40:57.628Z,20.29
2019-01-23T10:46:01.105Z,20.29
2019-01-23T10:51:04.657Z,20.28
2019-01-23T10:56:08.144Z,20.26
2019-01-23T11:01:13.439Z,20.25
2019-01-23T11:06:17.048Z,20.25
2019-01-23T11:11:20.526Z,20.24
2019-01-23T11:16:24.011Z,20.14
2019-01-23T11:21:27.495Z,20.14
2019-01-23T11:26:30.974Z,20.23
2019-01-23T11:31:34.449Z,20.23
2019-01-23T11:36:37.927Z,20.24
2019-01-23T11:41:41.416Z,20.24
2019-01-23T11:46:44.897Z,20.25
2019-01-23T11:51:48.400Z,20.24
2019-01-23T11:56:51.925Z,20.24
2019-01-23T12:01:56.138Z,20.22
2019-01-23T12:06:59.779Z,20.24
2019-01-23T12:12:03.270Z,18.16
2019-01-23T12:17:06.756Z,17.21
2019-01-23T12:22:10.246Z,17.61
2019-01-23T12:27:13.732Z,18.41
2019-01-23T12:32:17.228Z,18.41
2019-01-23T12:37:20.715Z,18.72
2019-01-23T12:42:24.200Z,18.91
2019-01-23T12:47:27.684Z,19.09
2019-01-23T12:52:31.179Z,19.23
2019-01-23T12:57:34.659Z,19.34
2019-01-23T13:02:38.151Z,19.42
2019-01-23T13:07:41.642Z,19.50
2019-01-23T13:12:45.502Z,19.54
2019-01-23T13:17:49.055Z,19.59
2019-01-23T13:22:52.551Z,19.63
2019-01-23T13:27:57.329Z,19.68
2019-01-23T13:33:00.755Z,19.73
2019-01-23T13:38:06.182Z,19.77
2019-01-23T13:43:09.672Z,19.80
2019-01-23T13:48:13.530Z,19.83
2019-01-23T13:53:17.937Z,19.86
2019-01-23T13:58:21.455Z,19.92
2019-01-23T14:03:24.931Z,19.95
2019-01-23T14:08:28.732Z,19.97
2019-01-23T14:13:32.283Z,19.99
2019-01-23T14:18:35.758Z,20.01
2019-01-23T14:23:39.235Z,20.03
2019-01-23T14:28:42.710Z,20.04
2019-01-23T14:33:46.178Z,20.06
2019-01-23T14:38:49.664Z,20.09
2019-01-23T14:43:53.154Z,20.10
2019-01-23T14:48:56.818Z,20.08
2019-01-23T14:54:00.319Z,20.08
2019-01-23T14:59:03.805Z,20.09
2019-01-23T15:04:07.292Z,20.12
2019-01-23T15:09:10.775Z,20.12
2019-01-23T15:14:14.470Z,20.13
2019-01-23T15:19:18.093Z,20.12
2019-01-23T15:24:21.659Z,20.13
2019-01-23T15:29:25.505Z,20.14
2019-01-23T15:34:29.060Z,20.15
2019-01-23T15:39:32.669Z,20.14
2019-01-23T15:44:36.588Z,20.13
2019-01-23T15:49:40.146Z,20.14
2019-01-23T15:54:44.028Z,20.14
2019-01-23T15:59:47.759Z,20.14
2019-01-23T16:04:51.679Z,20.13
2019-01-23T16:09:55.509Z,20.14
2019-01-23T16:14:59.124Z,20.14
2019-01-23T16:20:02.686Z,20.13
2019-01-23T16:25:09.224Z,20.14
2019-01-23T16:30:15.807Z,20.06
2019-01-23T16:35:19.647Z,20.04
2019-01-23T16:40:23.236Z,20.09
2019-01-23T16:45:26.977Z,20.13
2019-01-23T16:50:31.090Z,20.18
2019-01-23T16:55:35.424Z,20.24
2019-01-23T17:00:39.655Z,20.27
2019-01-23T17:05:43.686Z,20.28
2019-01-23T17:10:47.605Z,20.30
2019-01-23T17:15:51.433Z,20.36
2019-01-23T17:20:55.351Z,20.45
2019-01-23T17:25:59.283Z,20.52
2019-01-23T17:31:03.106Z,20.57
2019-01-23T17:36:07.028Z,20.57
2019-01-23T17:41:10.958Z,20.60
2019-01-23T17:46:14.882Z,20.63
2019-01-23T17:51:19.072Z,20.64
2019-01-23T17:56:22.942Z,20.69
2019-01-23T18:01:26.866Z,20.74
2019-01-23T18:06:31.290Z,20.80
2019-01-23T18:11:35.230Z,20.84
2019-01-23T18:16:39.254Z,20.87
2019-01-23T18:21:43.282Z,20.93
2019-01-23T18:26:47.204Z,20.98
2019-01-23T18:31:51.431Z,20.98
2019-01-23T18:37:04.775Z,20.96
2019-01-23T18:42:14.953Z,20.96
2019-01-23T18:47:25.429Z,20.95
2019-01-23T18:52:29.459Z,20.93
2019-01-23T18:57:34.219Z,20.93
2019-01-23T19:02:38.445Z,20.91
2019-01-23T19:07:42.667Z,20.91
2019-01-23T19:12:46.909Z,20.90
2019-01-23T19:17:51.134Z,20.89
2019-01-23T19:22:55.672Z,20.87
2019-01-23T19:28:00.114Z,20.86
2019-01-23T19:33:04.472Z,20.85
2019-01-23T19:38:08.885Z,20.83
2019-01-23T19:43:13.116Z,20.82
2019-01-23T19:48:17.450Z,20.82
2019-01-23T19:53:21.840Z,20.81
2019-01-23T19:58:26.021Z,20.80
2019-01-23T20:03:30.448Z,20.79
2019-01-23T20:08:34.793Z,20.80
2019-01-23T20:13:38.923Z,20.78
2019-01-23T20:18:43.156Z,20.77
2019-01-23T20:23:47.393Z,20.76
2019-01-23T20:28:51.523Z,20.74
2019-01-23T20:33:55.958Z,20.72
2019-01-23T20:38:59.983Z,20.70
2019-01-23T20:44:04.321Z,20.69
2019-01-23T20:49:08.447Z,20.68
2019-01-23T20:54:12.482Z,20.65
2019-01-23T20:59:16.707Z,20.63
2019-01-23T21:04:20.939Z,20.62
2019-01-23T21:09:25.191Z,20.60
2019-01-23T21:14:29.226Z,20.60
2019-01-23T21:19:33.138Z,20.58
2019-01-23T21:24:37.063Z,20.56
2019-01-23T21:29:41.191Z,20.55
2019-01-23T21:34:45.323Z,20.54
2019-01-23T21:39:49.349Z,20.54
2019-01-23T21:44:53.276Z,20.52
2019-01-23T21:49:57.205Z,20.52
2019-01-23T21:55:00.924Z,20.51
2019-01-23T22:00:10.276Z,20.50
2019-01-23T22:05:14.827Z,20.49
2019-01-23T22:10:18.299Z,20.49
2019-01-23T22:15:24.675Z,20.47
2019-01-23T22:20:28.216Z,20.47
2019-01-23T22:25:31.691Z,20.47
2019-01-23T22:30:35.306Z,20.46
2019-01-23T22:35:38.783Z,20.45
2019-01-23T22:40:42.251Z,20.44
2019-01-23T22:45:45.721Z,20.43
2019-01-23T22:50:49.194Z,20.43
2019-01-23T22:55:52.663Z,20.43
2019-01-23T23:01:02.000Z,20.41
2019-01-23T23:06:05.812Z,20.41
2019-01-23T23:11:09.285Z,20.40
2019-01-23T23:16:12.760Z,20.41
2019-01-23T23:21:16.227Z,20.39
2019-01-23T23:26:19.707Z,20.39
2019-01-23T23:31:23.198Z,20.39
2019-01-23T23:36:26.689Z,20.38
2019-01-23T23:41:30.190Z,20.39
2019-01-23T23:46:33.703Z,20.38
2019-01-23T23:51:37.184Z,20.37
2019-01-23T23:56:40.670Z,20.36
